sensor_id;sensor_type;location;lat;lon;timestamp;P1;durP1;ratioP1;P2;durP2;ratioP2
9689;SDS011;4884;42.614;23.340;2023-12-20T00:00:57;1.67;;;1.50;;
9689;SDS011;4884;42.614;23.340;2023-12-20T00:03:22;2.30;;;1.53;;
9689;SDS011;4884;42.614;23.340;2023-12-20T00:05:49;2.13;;;1.30;;
9689;SDS011;4884;42.614;23.340;2023-12-20T00:08:14;2.40;;;1.37;;
9689;SDS011;4884;42.614;23.340;2023-12-20T00:10:39;1.53;;;1.43;;
9689;SDS011;4884;42.614;23.340;2023-12-20T00:13:05;1.13;;;0.90;;
9689;SDS011;4884;42.614;23.340;2023-12-20T00:15:32;0.77;;;0.63;;
9689;SDS011;4884;42.614;23.340;2023-12-20T00:17:57;7.90;;;1.23;;
9689;SDS011;4884;42.614;23.340;2023-12-20T00:20:23;2.13;;;1.40;;
9689;SDS011;4884;42.614;23.340;2023-12-20T00:22:48;3.80;;;1.87;;
9689;SDS011;4884;42.614;23.340;2023-12-20T00:25:13;4.67;;;1.97;;
9689;SDS011;4884;42.614;23.340;2023-12-20T00:27:39;1.87;;;1.33;;
9689;SDS011;4884;42.614;23.340;2023-12-20T00:30:04;2.10;;;1.90;;
9689;SDS011;4884;42.614;23.340;2023-12-20T00:32:30;1.53;;;1.40;;
9689;SDS011;4884;42.614;23.340;2023-12-20T00:34:56;2.40;;;1.53;;
9689;SDS011;4884;42.614;23.340;2023-12-20T00:37:21;1.53;;;1.43;;
9689;SDS011;4884;42.614;23.340;2023-12-20T00:39:47;2.90;;;1.57;;
9689;SDS011;4884;42.614;23.340;2023-12-20T00:42:13;3.87;;;1.70;;
9689;SDS011;4884;42.614;23.340;2023-12-20T00:44:38;2.77;;;1.67;;
9689;SDS011;4884;42.614;23.340;2023-12-20T00:47:03;1.87;;;1.50;;
9689;SDS011;4884;42.614;23.340;2023-12-20T00:49:29;3.47;;;1.83;;
9689;SDS011;4884;42.614;23.340;2023-12-20T00:51:54;2.97;;;1.30;;
9689;SDS011;4884;42.614;23.340;2023-12-20T00:54:20;4.20;;;1.87;;
9689;SDS011;4884;42.614;23.340;2023-12-20T00:56:45;2.13;;;1.37;;
9689;SDS011;4884;42.614;23.340;2023-12-20T00:59:10;2.43;;;1.40;;
9689;SDS011;4884;42.614;23.340;2023-12-20T01:01:36;1.57;;;1.47;;
9689;SDS011;4884;42.614;23.340;2023-12-20T01:04:01;2.83;;;1.60;;
9689;SDS011;4884;42.614;23.340;2023-12-20T01:06:27;2.27;;;1.93;;
9689;SDS011;4884;42.614;23.340;2023-12-20T01:08:52;4.10;;;2.70;;
9689;SDS011;4884;42.614;23.340;2023-12-20T01:11:17;2.73;;;1.50;;
9689;SDS011;4884;42.614;23.340;2023-12-20T01:13:43;3.13;;;2.20;;
9689;SDS011;4884;42.614;23.340;2023-12-20T01:16:11;3.07;;;2.07;;
9689;SDS011;4884;42.614;23.340;2023-12-20T01:18:37;4.10;;;2.60;;
9689;SDS011;4884;42.614;23.340;2023-12-20T01:21:03;7.20;;;4.47;;
9689;SDS011;4884;42.614;23.340;2023-12-20T01:23:30;6.37;;;4.40;;
9689;SDS011;4884;42.614;23.340;2023-12-20T01:25:55;7.90;;;4.97;;
9689;SDS011;4884;42.614;23.340;2023-12-20T01:28:21;4.13;;;3.13;;
9689;SDS011;4884;42.614;23.340;2023-12-20T01:30:46;3.27;;;2.77;;
9689;SDS011;4884;42.614;23.340;2023-12-20T01:33:12;3.73;;;2.70;;
9689;SDS011;4884;42.614;23.340;2023-12-20T01:35:37;3.03;;;2.60;;
9689;SDS011;4884;42.614;23.340;2023-12-20T01:38:02;3.47;;;2.33;;
9689;SDS011;4884;42.614;23.340;2023-12-20T01:40:28;3.93;;;1.90;;
9689;SDS011;4884;42.614;23.340;2023-12-20T01:43:00;5.03;;;2.57;;
9689;SDS011;4884;42.614;23.340;2023-12-20T01:45:25;4.47;;;2.67;;
9689;SDS011;4884;42.614;23.340;2023-12-20T01:47:50;9.20;;;3.50;;
9689;SDS011;4884;42.614;23.340;2023-12-20T01:50:16;6.50;;;3.00;;
9689;SDS011;4884;42.614;23.340;2023-12-20T01:52:42;4.50;;;2.20;;
9689;SDS011;4884;42.614;23.340;2023-12-20T01:55:08;2.40;;;2.00;;
9689;SDS011;4884;42.614;23.340;2023-12-20T01:57:39;4.10;;;3.50;;
9689;SDS011;4884;42.614;23.340;2023-12-20T02:00:06;4.70;;;3.70;;
9689;SDS011;4884;42.614;23.340;2023-12-20T02:02:31;5.30;;;2.90;;
9689;SDS011;4884;42.614;23.340;2023-12-20T02:04:58;4.23;;;2.93;;
9689;SDS011;4884;42.614;23.340;2023-12-20T02:07:23;4.97;;;3.17;;
9689;SDS011;4884;42.614;23.340;2023-12-20T02:09:49;3.37;;;2.80;;
9689;SDS011;4884;42.614;23.340;2023-12-20T02:12:15;3.23;;;2.30;;
9689;SDS011;4884;42.614;23.340;2023-12-20T02:14:40;2.40;;;2.03;;
9689;SDS011;4884;42.614;23.340;2023-12-20T02:17:06;2.87;;;1.87;;
9689;SDS011;4884;42.614;23.340;2023-12-20T02:19:31;4.80;;;1.87;;
9689;SDS011;4884;42.614;23.340;2023-12-20T02:22:09;3.20;;;1.50;;
9689;SDS011;4884;42.614;23.340;2023-12-20T02:24:35;10.13;;;6.13;;
9689;SDS011;4884;42.614;23.340;2023-12-20T02:27:00;4.83;;;3.43;;
9689;SDS011;4884;42.614;23.340;2023-12-20T02:29:26;4.27;;;2.73;;
9689;SDS011;4884;42.614;23.340;2023-12-20T02:31:52;4.87;;;2.90;;
9689;SDS011;4884;42.614;23.340;2023-12-20T02:34:17;3.13;;;2.20;;
9689;SDS011;4884;42.614;23.340;2023-12-20T02:36:42;1.90;;;1.40;;
9689;SDS011;4884;42.614;23.340;2023-12-20T02:39:08;2.63;;;1.40;;
9689;SDS011;4884;42.614;23.340;2023-12-20T02:41:33;3.27;;;2.47;;
9689;SDS011;4884;42.614;23.340;2023-12-20T02:43:58;9.33;;;4.97;;
9689;SDS011;4884;42.614;23.340;2023-12-20T02:46:24;6.70;;;3.03;;
9689;SDS011;4884;42.614;23.340;2023-12-20T02:48:49;9.00;;;4.43;;
9689;SDS011;4884;42.614;23.340;2023-12-20T02:51:15;10.60;;;6.33;;
9689;SDS011;4884;42.614;23.340;2023-12-20T02:53:40;17.30;;;7.77;;
9689;SDS011;4884;42.614;23.340;2023-12-20T02:56:05;11.63;;;5.80;;
9689;SDS011;4884;42.614;23.340;2023-12-20T02:58:31;8.17;;;4.73;;
9689;SDS011;4884;42.614;23.340;2023-12-20T03:00:56;14.57;;;6.63;;
9689;SDS011;4884;42.614;23.340;2023-12-20T03:03:22;9.70;;;5.30;;
9689;SDS011;4884;42.614;23.340;2023-12-20T03:05:47;3.73;;;2.37;;
9689;SDS011;4884;42.614;23.340;2023-12-20T03:08:12;6.03;;;1.90;;
9689;SDS011;4884;42.614;23.340;2023-12-20T03:10:38;2.47;;;1.83;;
9689;SDS011;4884;42.614;23.340;2023-12-20T03:13:03;1.23;;;0.80;;
9689;SDS011;4884;42.614;23.340;2023-12-20T03:15:29;2.60;;;1.07;;
9689;SDS011;4884;42.614;23.340;2023-12-20T03:17:54;2.27;;;1.30;;
9689;SDS011;4884;42.614;23.340;2023-12-20T03:20:20;2.70;;;1.67;;
9689;SDS011;4884;42.614;23.340;2023-12-20T03:22:45;4.30;;;3.17;;
9689;SDS011;4884;42.614;23.340;2023-12-20T03:25:11;6.80;;;4.33;;
9689;SDS011;4884;42.614;23.340;2023-12-20T03:27:39;6.07;;;3.37;;
9689;SDS011;4884;42.614;23.340;2023-12-20T03:30:04;3.53;;;3.20;;
9689;SDS011;4884;42.614;23.340;2023-12-20T03:32:31;6.93;;;4.50;;
9689;SDS011;4884;42.614;23.340;2023-12-20T03:34:56;5.63;;;4.13;;
9689;SDS011;4884;42.614;23.340;2023-12-20T03:37:22;3.80;;;3.20;;
9689;SDS011;4884;42.614;23.340;2023-12-20T03:39:48;4.87;;;3.30;;
9689;SDS011;4884;42.614;23.340;2023-12-20T03:42:13;4.00;;;2.50;;
9689;SDS011;4884;42.614;23.340;2023-12-20T03:44:39;1.90;;;1.63;;
9689;SDS011;4884;42.614;23.340;2023-12-20T03:47:05;4.47;;;2.60;;
9689;SDS011;4884;42.614;23.340;2023-12-20T03:49:31;7.17;;;5.40;;
9689;SDS011;4884;42.614;23.340;2023-12-20T03:51:56;8.23;;;6.47;;
9689;SDS011;4884;42.614;23.340;2023-12-20T03:54:21;5.83;;;4.47;;
9689;SDS011;4884;42.614;23.340;2023-12-20T03:56:47;11.93;;;6.10;;
9689;SDS011;4884;42.614;23.340;2023-12-20T03:59:12;7.77;;;6.03;;
9689;SDS011;4884;42.614;23.340;2023-12-20T04:01:37;14.77;;;9.27;;
9689;SDS011;4884;42.614;23.340;2023-12-20T04:04:03;11.77;;;7.97;;
9689;SDS011;4884;42.614;23.340;2023-12-20T04:06:28;9.73;;;5.97;;
9689;SDS011;4884;42.614;23.340;2023-12-20T04:08:54;11.00;;;6.63;;
9689;SDS011;4884;42.614;23.340;2023-12-20T04:11:19;15.50;;;8.53;;
9689;SDS011;4884;42.614;23.340;2023-12-20T04:13:45;18.47;;;8.87;;
9689;SDS011;4884;42.614;23.340;2023-12-20T04:16:10;17.63;;;8.43;;
9689;SDS011;4884;42.614;23.340;2023-12-20T04:18:35;17.67;;;8.30;;
9689;SDS011;4884;42.614;23.340;2023-12-20T04:21:01;16.10;;;7.23;;
9689;SDS011;4884;42.614;23.340;2023-12-20T04:23:26;14.57;;;6.33;;
9689;SDS011;4884;42.614;23.340;2023-12-20T04:25:52;28.80;;;11.53;;
9689;SDS011;4884;42.614;23.340;2023-12-20T04:28:18;19.70;;;9.30;;
9689;SDS011;4884;42.614;23.340;2023-12-20T04:30:43;8.20;;;6.57;;
9689;SDS011;4884;42.614;23.340;2023-12-20T04:33:09;5.93;;;4.70;;
9689;SDS011;4884;42.614;23.340;2023-12-20T04:35:34;8.70;;;5.07;;
9689;SDS011;4884;42.614;23.340;2023-12-20T04:37:59;5.60;;;3.53;;
9689;SDS011;4884;42.614;23.340;2023-12-20T04:40:25;11.03;;;5.67;;
9689;SDS011;4884;42.614;23.340;2023-12-20T04:42:50;4.33;;;2.80;;
9689;SDS011;4884;42.614;23.340;2023-12-20T04:45:15;3.37;;;3.07;;
9689;SDS011;4884;42.614;23.340;2023-12-20T04:47:42;16.43;;;8.10;;
9689;SDS011;4884;42.614;23.340;2023-12-20T04:50:07;15.87;;;7.87;;
9689;SDS011;4884;42.614;23.340;2023-12-20T04:52:34;12.37;;;6.30;;
9689;SDS011;4884;42.614;23.340;2023-12-20T04:55:00;19.43;;;9.50;;
9689;SDS011;4884;42.614;23.340;2023-12-20T04:57:25;25.73;;;11.87;;
9689;SDS011;4884;42.614;23.340;2023-12-20T04:59:50;9.23;;;6.93;;
9689;SDS011;4884;42.614;23.340;2023-12-20T05:02:16;14.87;;;9.00;;
9689;SDS011;4884;42.614;23.340;2023-12-20T05:04:41;23.57;;;12.90;;
9689;SDS011;4884;42.614;23.340;2023-12-20T05:07:06;17.30;;;10.70;;
9689;SDS011;4884;42.614;23.340;2023-12-20T05:09:32;40.57;;;23.13;;
9689;SDS011;4884;42.614;23.340;2023-12-20T05:11:58;36.63;;;19.20;;
9689;SDS011;4884;42.614;23.340;2023-12-20T05:14:24;26.23;;;12.53;;
9689;SDS011;4884;42.614;23.340;2023-12-20T05:16:50;41.60;;;17.30;;
9689;SDS011;4884;42.614;23.340;2023-12-20T05:19:15;27.30;;;13.63;;
9689;SDS011;4884;42.614;23.340;2023-12-20T05:21:40;21.40;;;11.53;;
9689;SDS011;4884;42.614;23.340;2023-12-20T05:24:06;18.67;;;10.63;;
9689;SDS011;4884;42.614;23.340;2023-12-20T05:26:32;15.97;;;9.90;;
9689;SDS011;4884;42.614;23.340;2023-12-20T05:28:57;29.50;;;13.30;;
9689;SDS011;4884;42.614;23.340;2023-12-20T05:31:23;10.83;;;6.97;;
9689;SDS011;4884;42.614;23.340;2023-12-20T05:33:48;14.90;;;7.47;;
9689;SDS011;4884;42.614;23.340;2023-12-20T05:36:13;18.67;;;10.57;;
9689;SDS011;4884;42.614;23.340;2023-12-20T05:38:40;17.27;;;10.17;;
9689;SDS011;4884;42.614;23.340;2023-12-20T05:41:05;17.23;;;8.97;;
9689;SDS011;4884;42.614;23.340;2023-12-20T05:43:31;17.63;;;8.53;;
9689;SDS011;4884;42.614;23.340;2023-12-20T05:45:56;20.50;;;10.53;;
9689;SDS011;4884;42.614;23.340;2023-12-20T05:48:21;28.93;;;13.30;;
9689;SDS011;4884;42.614;23.340;2023-12-20T05:50:47;31.83;;;14.97;;
9689;SDS011;4884;42.614;23.340;2023-12-20T05:53:13;38.07;;;18.47;;
9689;SDS011;4884;42.614;23.340;2023-12-20T05:55:39;28.53;;;15.03;;
9689;SDS011;4884;42.614;23.340;2023-12-20T05:58:05;19.43;;;11.20;;
9689;SDS011;4884;42.614;23.340;2023-12-20T06:00:30;17.10;;;9.77;;
9689;SDS011;4884;42.614;23.340;2023-12-20T06:02:55;25.50;;;13.63;;
9689;SDS011;4884;42.614;23.340;2023-12-20T06:05:21;26.63;;;12.70;;
9689;SDS011;4884;42.614;23.340;2023-12-20T06:07:46;21.17;;;13.47;;
9689;SDS011;4884;42.614;23.340;2023-12-20T06:10:13;24.70;;;14.33;;
9689;SDS011;4884;42.614;23.340;2023-12-20T06:12:39;27.13;;;14.97;;
9689;SDS011;4884;42.614;23.340;2023-12-20T06:15:04;26.37;;;14.43;;
9689;SDS011;4884;42.614;23.340;2023-12-20T06:17:31;34.40;;;18.67;;
9689;SDS011;4884;42.614;23.340;2023-12-20T06:19:57;51.33;;;25.87;;
9689;SDS011;4884;42.614;23.340;2023-12-20T06:22:22;83.57;;;34.93;;
9689;SDS011;4884;42.614;23.340;2023-12-20T06:24:47;80.17;;;36.50;;
9689;SDS011;4884;42.614;23.340;2023-12-20T06:27:13;64.20;;;27.40;;
9689;SDS011;4884;42.614;23.340;2023-12-20T06:29:38;69.93;;;32.63;;
9689;SDS011;4884;42.614;23.340;2023-12-20T06:32:04;88.50;;;44.40;;
9689;SDS011;4884;42.614;23.340;2023-12-20T06:34:29;70.13;;;36.00;;
9689;SDS011;4884;42.614;23.340;2023-12-20T06:36:55;42.37;;;26.33;;
9689;SDS011;4884;42.614;23.340;2023-12-20T06:39:20;55.13;;;28.70;;
9689;SDS011;4884;42.614;23.340;2023-12-20T06:41:45;71.10;;;33.30;;
9689;SDS011;4884;42.614;23.340;2023-12-20T06:44:11;41.13;;;22.67;;
9689;SDS011;4884;42.614;23.340;2023-12-20T06:46:36;48.27;;;26.37;;
9689;SDS011;4884;42.614;23.340;2023-12-20T06:49:02;57.07;;;30.20;;
9689;SDS011;4884;42.614;23.340;2023-12-20T06:51:27;57.57;;;34.27;;
9689;SDS011;4884;42.614;23.340;2023-12-20T06:53:53;55.90;;;30.53;;
9689;SDS011;4884;42.614;23.340;2023-12-20T06:56:18;53.73;;;30.90;;
9689;SDS011;4884;42.614;23.340;2023-12-20T06:58:44;55.17;;;32.77;;
9689;SDS011;4884;42.614;23.340;2023-12-20T07:01:13;50.50;;;30.60;;
9689;SDS011;4884;42.614;23.340;2023-12-20T07:03:39;46.00;;;27.93;;
9689;SDS011;4884;42.614;23.340;2023-12-20T07:06:05;42.47;;;28.00;;
9689;SDS011;4884;42.614;23.340;2023-12-20T07:08:30;43.47;;;28.93;;
9689;SDS011;4884;42.614;23.340;2023-12-20T07:10:56;40.27;;;26.63;;
9689;SDS011;4884;42.614;23.340;2023-12-20T07:13:21;45.07;;;28.13;;
9689;SDS011;4884;42.614;23.340;2023-12-20T07:15:47;35.77;;;24.43;;
9689;SDS011;4884;42.614;23.340;2023-12-20T07:18:13;45.47;;;29.87;;
9689;SDS011;4884;42.614;23.340;2023-12-20T07:20:38;42.17;;;27.73;;
9689;SDS011;4884;42.614;23.340;2023-12-20T07:23:04;37.20;;;26.80;;
9689;SDS011;4884;42.614;23.340;2023-12-20T07:25:29;44.63;;;31.17;;
9689;SDS011;4884;42.614;23.340;2023-12-20T07:27:57;54.30;;;35.07;;
9689;SDS011;4884;42.614;23.340;2023-12-20T07:30:23;46.17;;;31.03;;
9689;SDS011;4884;42.614;23.340;2023-12-20T07:32:48;42.40;;;29.83;;
9689;SDS011;4884;42.614;23.340;2023-12-20T07:35:14;48.67;;;31.30;;
9689;SDS011;4884;42.614;23.340;2023-12-20T07:37:40;48.57;;;31.43;;
9689;SDS011;4884;42.614;23.340;2023-12-20T07:40:06;46.47;;;31.73;;
9689;SDS011;4884;42.614;23.340;2023-12-20T07:42:32;42.13;;;28.13;;
9689;SDS011;4884;42.614;23.340;2023-12-20T07:44:57;42.00;;;28.50;;
9689;SDS011;4884;42.614;23.340;2023-12-20T07:47:23;53.07;;;32.80;;
9689;SDS011;4884;42.614;23.340;2023-12-20T07:49:50;43.47;;;30.53;;
9689;SDS011;4884;42.614;23.340;2023-12-20T07:52:16;46.77;;;31.03;;
9689;SDS011;4884;42.614;23.340;2023-12-20T07:54:43;46.83;;;32.40;;
9689;SDS011;4884;42.614;23.340;2023-12-20T07:57:08;50.30;;;32.13;;
9689;SDS011;4884;42.614;23.340;2023-12-20T07:59:35;45.53;;;31.97;;
9689;SDS011;4884;42.614;23.340;2023-12-20T08:02:01;51.87;;;36.03;;
9689;SDS011;4884;42.614;23.340;2023-12-20T08:04:26;54.30;;;40.47;;
9689;SDS011;4884;42.614;23.340;2023-12-20T08:06:52;51.17;;;36.07;;
9689;SDS011;4884;42.614;23.340;2023-12-20T08:09:17;50.27;;;35.50;;
9689;SDS011;4884;42.614;23.340;2023-12-20T08:11:47;56.27;;;39.23;;
9689;SDS011;4884;42.614;23.340;2023-12-20T08:14:12;55.03;;;39.07;;
9689;SDS011;4884;42.614;23.340;2023-12-20T08:16:38;54.87;;;37.47;;
9689;SDS011;4884;42.614;23.340;2023-12-20T08:19:03;54.67;;;41.23;;
9689;SDS011;4884;42.614;23.340;2023-12-20T08:21:29;49.20;;;39.80;;
9689;SDS011;4884;42.614;23.340;2023-12-20T08:23:54;54.30;;;40.37;;
9689;SDS011;4884;42.614;23.340;2023-12-20T08:26:20;58.63;;;40.67;;
9689;SDS011;4884;42.614;23.340;2023-12-20T08:28:46;56.80;;;40.67;;
9689;SDS011;4884;42.614;23.340;2023-12-20T08:31:15;56.20;;;42.80;;
9689;SDS011;4884;42.614;23.340;2023-12-20T08:33:43;62.60;;;44.47;;
9689;SDS011;4884;42.614;23.340;2023-12-20T08:36:12;64.20;;;51.77;;
9689;SDS011;4884;42.614;23.340;2023-12-20T08:38:37;77.50;;;58.13;;
9689;SDS011;4884;42.614;23.340;2023-12-20T08:41:03;80.77;;;60.90;;
9689;SDS011;4884;42.614;23.340;2023-12-20T08:43:30;71.43;;;52.77;;
9689;SDS011;4884;42.614;23.340;2023-12-20T08:45:56;58.87;;;45.47;;
9689;SDS011;4884;42.614;23.340;2023-12-20T08:48:21;56.07;;;41.17;;
9689;SDS011;4884;42.614;23.340;2023-12-20T08:50:47;47.03;;;37.10;;
9689;SDS011;4884;42.614;23.340;2023-12-20T08:53:13;48.47;;;38.33;;
9689;SDS011;4884;42.614;23.340;2023-12-20T08:55:40;51.03;;;37.20;;
9689;SDS011;4884;42.614;23.340;2023-12-20T08:58:06;46.33;;;34.57;;
9689;SDS011;4884;42.614;23.340;2023-12-20T09:00:33;46.70;;;35.17;;
9689;SDS011;4884;42.614;23.340;2023-12-20T09:02:58;46.83;;;36.23;;
9689;SDS011;4884;42.614;23.340;2023-12-20T09:05:24;46.37;;;36.67;;
9689;SDS011;4884;42.614;23.340;2023-12-20T09:07:50;57.00;;;41.37;;
9689;SDS011;4884;42.614;23.340;2023-12-20T09:10:15;59.87;;;44.40;;
9689;SDS011;4884;42.614;23.340;2023-12-20T09:12:41;79.27;;;52.03;;
9689;SDS011;4884;42.614;23.340;2023-12-20T09:15:07;63.00;;;46.43;;
9689;SDS011;4884;42.614;23.340;2023-12-20T09:17:33;66.77;;;47.67;;
9689;SDS011;4884;42.614;23.340;2023-12-20T09:19:58;56.93;;;43.43;;
9689;SDS011;4884;42.614;23.340;2023-12-20T09:22:25;57.20;;;41.43;;
9689;SDS011;4884;42.614;23.340;2023-12-20T09:24:50;57.87;;;42.13;;
9689;SDS011;4884;42.614;23.340;2023-12-20T09:27:16;60.87;;;41.43;;
9689;SDS011;4884;42.614;23.340;2023-12-20T09:29:41;60.23;;;41.33;;
9689;SDS011;4884;42.614;23.340;2023-12-20T09:32:07;60.83;;;45.83;;
9689;SDS011;4884;42.614;23.340;2023-12-20T09:34:33;64.67;;;46.23;;
9689;SDS011;4884;42.614;23.340;2023-12-20T09:36:58;58.33;;;43.07;;
9689;SDS011;4884;42.614;23.340;2023-12-20T09:39:24;64.13;;;48.70;;
9689;SDS011;4884;42.614;23.340;2023-12-20T09:41:51;63.83;;;49.63;;
9689;SDS011;4884;42.614;23.340;2023-12-20T09:44:21;67.50;;;54.37;;
9689;SDS011;4884;42.614;23.340;2023-12-20T09:46:49;64.17;;;49.60;;
9689;SDS011;4884;42.614;23.340;2023-12-20T09:49:14;66.00;;;46.43;;
9689;SDS011;4884;42.614;23.340;2023-12-20T09:51:42;57.63;;;43.67;;
9689;SDS011;4884;42.614;23.340;2023-12-20T09:54:08;63.10;;;43.23;;
9689;SDS011;4884;42.614;23.340;2023-12-20T09:56:34;55.73;;;38.77;;
9689;SDS011;4884;42.614;23.340;2023-12-20T09:59:00;49.37;;;38.43;;
9689;SDS011;4884;42.614;23.340;2023-12-20T10:01:25;54.60;;;40.30;;
9689;SDS011;4884;42.614;23.340;2023-12-20T10:03:52;51.77;;;39.70;;
9689;SDS011;4884;42.614;23.340;2023-12-20T10:06:19;53.83;;;41.67;;
9689;SDS011;4884;42.614;23.340;2023-12-20T10:08:44;53.10;;;38.67;;
9689;SDS011;4884;42.614;23.340;2023-12-20T10:11:10;49.80;;;38.67;;
9689;SDS011;4884;42.614;23.340;2023-12-20T10:13:39;50.30;;;40.13;;
9689;SDS011;4884;42.614;23.340;2023-12-20T10:16:06;53.30;;;41.10;;
9689;SDS011;4884;42.614;23.340;2023-12-20T10:18:32;53.73;;;42.13;;
9689;SDS011;4884;42.614;23.340;2023-12-20T10:20:57;55.10;;;43.40;;
9689;SDS011;4884;42.614;23.340;2023-12-20T10:23:23;65.20;;;47.30;;
9689;SDS011;4884;42.614;23.340;2023-12-20T10:25:57;56.33;;;44.83;;
9689;SDS011;4884;42.614;23.340;2023-12-20T10:28:24;64.30;;;48.30;;
9689;SDS011;4884;42.614;23.340;2023-12-20T10:30:52;54.27;;;43.90;;
9689;SDS011;4884;42.614;23.340;2023-12-20T10:33:25;56.53;;;47.73;;
9689;SDS011;4884;42.614;23.340;2023-12-20T10:35:52;51.77;;;45.00;;
9689;SDS011;4884;42.614;23.340;2023-12-20T10:38:17;53.77;;;43.03;;
9689;SDS011;4884;42.614;23.340;2023-12-20T10:40:43;54.67;;;44.70;;
9689;SDS011;4884;42.614;23.340;2023-12-20T10:43:10;55.77;;;46.27;;
9689;SDS011;4884;42.614;23.340;2023-12-20T10:45:36;55.57;;;46.23;;
9689;SDS011;4884;42.614;23.340;2023-12-20T10:48:02;48.33;;;41.13;;
9689;SDS011;4884;42.614;23.340;2023-12-20T10:50:28;53.93;;;43.20;;
9689;SDS011;4884;42.614;23.340;2023-12-20T10:52:54;55.90;;;45.13;;
9689;SDS011;4884;42.614;23.340;2023-12-20T10:55:24;61.67;;;45.70;;
9689;SDS011;4884;42.614;23.340;2023-12-20T10:58:00;56.70;;;46.47;;
9689;SDS011;4884;42.614;23.340;2023-12-20T11:00:26;57.63;;;46.87;;
9689;SDS011;4884;42.614;23.340;2023-12-20T11:02:55;56.57;;;46.30;;
9689;SDS011;4884;42.614;23.340;2023-12-20T11:05:40;57.50;;;44.80;;
9689;SDS011;4884;42.614;23.340;2023-12-20T11:08:12;58.57;;;45.63;;
9689;SDS011;4884;42.614;23.340;2023-12-20T11:13:23;62.33;;;44.40;;
9689;SDS011;4884;42.614;23.340;2023-12-20T11:15:53;57.33;;;44.50;;
9689;SDS011;4884;42.614;23.340;2023-12-20T11:18:19;56.17;;;44.60;;
9689;SDS011;4884;42.614;23.340;2023-12-20T11:20:44;66.37;;;46.43;;
9689;SDS011;4884;42.614;23.340;2023-12-20T11:23:09;53.03;;;44.37;;
9689;SDS011;4884;42.614;23.340;2023-12-20T11:25:54;58.20;;;48.43;;
9689;SDS011;4884;42.614;23.340;2023-12-20T11:28:24;69.80;;;52.60;;
9689;SDS011;4884;42.614;23.340;2023-12-20T11:30:51;57.53;;;45.67;;
9689;SDS011;4884;42.614;23.340;2023-12-20T11:33:21;57.53;;;45.87;;
9689;SDS011;4884;42.614;23.340;2023-12-20T11:35:50;56.83;;;46.23;;
9689;SDS011;4884;42.614;23.340;2023-12-20T11:38:16;57.00;;;46.23;;
9689;SDS011;4884;42.614;23.340;2023-12-20T11:40:42;54.07;;;45.07;;
9689;SDS011;4884;42.614;23.340;2023-12-20T11:43:08;55.47;;;44.27;;
9689;SDS011;4884;42.614;23.340;2023-12-20T11:45:34;52.63;;;46.13;;
9689;SDS011;4884;42.614;23.340;2023-12-20T11:48:00;65.97;;;53.90;;
9689;SDS011;4884;42.614;23.340;2023-12-20T11:50:27;56.73;;;46.17;;
9689;SDS011;4884;42.614;23.340;2023-12-20T11:52:53;58.30;;;49.20;;
9689;SDS011;4884;42.614;23.340;2023-12-20T11:55:20;59.10;;;48.37;;
9689;SDS011;4884;42.614;23.340;2023-12-20T11:57:49;54.13;;;46.30;;
9689;SDS011;4884;42.614;23.340;2023-12-20T12:00:15;59.67;;;46.73;;
9689;SDS011;4884;42.614;23.340;2023-12-20T12:02:41;55.00;;;44.67;;
9689;SDS011;4884;42.614;23.340;2023-12-20T12:05:07;57.47;;;45.33;;
9689;SDS011;4884;42.614;23.340;2023-12-20T12:07:33;60.77;;;46.50;;
9689;SDS011;4884;42.614;23.340;2023-12-20T12:09:59;58.90;;;46.10;;
9689;SDS011;4884;42.614;23.340;2023-12-20T12:12:25;57.00;;;47.10;;
9689;SDS011;4884;42.614;23.340;2023-12-20T12:14:52;60.77;;;48.13;;
9689;SDS011;4884;42.614;23.340;2023-12-20T12:17:18;60.77;;;47.83;;
9689;SDS011;4884;42.614;23.340;2023-12-20T12:19:43;59.00;;;47.00;;
9689;SDS011;4884;42.614;23.340;2023-12-20T12:22:09;58.70;;;46.40;;
9689;SDS011;4884;42.614;23.340;2023-12-20T12:24:48;58.10;;;45.30;;
9689;SDS011;4884;42.614;23.340;2023-12-20T12:27:14;58.70;;;43.40;;
9689;SDS011;4884;42.614;23.340;2023-12-20T12:29:40;60.83;;;43.60;;
9689;SDS011;4884;42.614;23.340;2023-12-20T12:32:06;42.33;;;31.00;;
9689;SDS011;4884;42.614;23.340;2023-12-20T12:34:33;47.10;;;34.67;;
9689;SDS011;4884;42.614;23.340;2023-12-20T12:37:02;55.90;;;41.57;;
9689;SDS011;4884;42.614;23.340;2023-12-20T12:39:29;63.43;;;46.57;;
9689;SDS011;4884;42.614;23.340;2023-12-20T12:41:54;65.67;;;49.13;;
9689;SDS011;4884;42.614;23.340;2023-12-20T12:44:20;68.57;;;48.67;;
9689;SDS011;4884;42.614;23.340;2023-12-20T12:46:48;63.87;;;48.63;;
9689;SDS011;4884;42.614;23.340;2023-12-20T12:49:16;67.27;;;47.53;;
9689;SDS011;4884;42.614;23.340;2023-12-20T12:51:41;71.83;;;49.20;;
9689;SDS011;4884;42.614;23.340;2023-12-20T12:54:08;76.23;;;55.17;;
9689;SDS011;4884;42.614;23.340;2023-12-20T12:56:34;69.87;;;52.70;;
9689;SDS011;4884;42.614;23.340;2023-12-20T12:59:00;75.80;;;49.90;;
9689;SDS011;4884;42.614;23.340;2023-12-20T13:01:26;77.73;;;51.83;;
9689;SDS011;4884;42.614;23.340;2023-12-20T13:03:51;71.57;;;52.07;;
9689;SDS011;4884;42.614;23.340;2023-12-20T13:06:17;72.20;;;51.77;;
9689;SDS011;4884;42.614;23.340;2023-12-20T13:08:42;72.07;;;50.33;;
9689;SDS011;4884;42.614;23.340;2023-12-20T13:11:09;85.10;;;50.93;;
9689;SDS011;4884;42.614;23.340;2023-12-20T13:13:34;73.33;;;44.00;;
9689;SDS011;4884;42.614;23.340;2023-12-20T13:16:00;58.00;;;37.87;;
9689;SDS011;4884;42.614;23.340;2023-12-20T13:18:26;69.23;;;37.03;;
9689;SDS011;4884;42.614;23.340;2023-12-20T13:20:51;58.50;;;35.43;;
9689;SDS011;4884;42.614;23.340;2023-12-20T13:23:16;71.97;;;35.37;;
9689;SDS011;4884;42.614;23.340;2023-12-20T13:25:43;73.23;;;43.37;;
9689;SDS011;4884;42.614;23.340;2023-12-20T13:28:09;62.50;;;36.47;;
9689;SDS011;4884;42.614;23.340;2023-12-20T13:30:35;97.97;;;68.23;;
9689;SDS011;4884;42.614;23.340;2023-12-20T13:33:00;59.87;;;41.30;;
9689;SDS011;4884;42.614;23.340;2023-12-20T13:35:26;51.07;;;32.47;;
9689;SDS011;4884;42.614;23.340;2023-12-20T13:37:51;50.90;;;28.57;;
9689;SDS011;4884;42.614;23.340;2023-12-20T13:40:16;45.67;;;28.07;;
9689;SDS011;4884;42.614;23.340;2023-12-20T13:42:42;43.10;;;24.17;;
9689;SDS011;4884;42.614;23.340;2023-12-20T13:45:08;38.43;;;22.07;;
9689;SDS011;4884;42.614;23.340;2023-12-20T13:47:33;45.73;;;25.67;;
9689;SDS011;4884;42.614;23.340;2023-12-20T13:49:59;19.13;;;12.53;;
9689;SDS011;4884;42.614;23.340;2023-12-20T13:52:24;17.70;;;11.53;;
9689;SDS011;4884;42.614;23.340;2023-12-20T13:54:50;13.93;;;8.43;;
9689;SDS011;4884;42.614;23.340;2023-12-20T13:57:15;9.83;;;6.50;;
9689;SDS011;4884;42.614;23.340;2023-12-20T13:59:40;35.73;;;18.23;;
9689;SDS011;4884;42.614;23.340;2023-12-20T14:02:06;24.17;;;14.17;;
9689;SDS011;4884;42.614;23.340;2023-12-20T14:04:31;12.27;;;9.37;;
9689;SDS011;4884;42.614;23.340;2023-12-20T14:06:57;22.53;;;13.57;;
9689;SDS011;4884;42.614;23.340;2023-12-20T14:09:22;14.37;;;9.00;;
9689;SDS011;4884;42.614;23.340;2023-12-20T14:11:48;15.90;;;8.10;;
9689;SDS011;4884;42.614;23.340;2023-12-20T14:14:13;10.90;;;8.03;;
9689;SDS011;4884;42.614;23.340;2023-12-20T14:16:39;12.03;;;7.67;;
9689;SDS011;4884;42.614;23.340;2023-12-20T14:19:04;15.00;;;9.50;;
9689;SDS011;4884;42.614;23.340;2023-12-20T14:21:32;19.43;;;12.73;;
9689;SDS011;4884;42.614;23.340;2023-12-20T14:23:57;21.60;;;13.70;;
9689;SDS011;4884;42.614;23.340;2023-12-20T14:26:23;23.33;;;13.50;;
9689;SDS011;4884;42.614;23.340;2023-12-20T14:28:49;20.67;;;14.10;;
9689;SDS011;4884;42.614;23.340;2023-12-20T14:31:14;17.83;;;13.60;;
9689;SDS011;4884;42.614;23.340;2023-12-20T14:33:39;12.37;;;9.60;;
9689;SDS011;4884;42.614;23.340;2023-12-20T14:36:07;9.80;;;8.03;;
9689;SDS011;4884;42.614;23.340;2023-12-20T14:38:32;11.73;;;8.90;;